Wellerlooi, Netherlands
Current Conditions -  °F | °C
As of 10:20 PM on Saturday 25 Oct 2014 (Local Time) from EDLV Reporting Station
Broken Clouds Broken Clouds  
Wind Chill: 50°   Ceiling: 3900
Heat Index: 50°   Visibility: 6mi
Dew Point: 48°   Wind: 5mph
Humidity: 94%   Direction: 220°SW
Pressure: 30.18"   Gusts: NA
Location:  51.53°N, 6.14°E
Report Text: EDLV 252020Z 22004KT 9999 BKN039 10/09 Q1022
Loading
Personal Weather Stations






























Interactive Weather Map
Tropical Storm Tracking
New forecast layout! Learn more

10-Day Weather Forecast

Advertisements
Track Severe Weather on mobile